Time;durP1;ratioP1;P1;durP2;ratioP2;P2;SDS_P1;SDS_P2;PMS_P1;PMS_P2;Temp;Humidity;BMP_temperature;BMP_pressure;BME280_temperature;BME280_humidity;BME280_pressure;Samples;Min_cycle;Max_cycle;Signal;HPM_P1;HPM_P2
2023/08/31 00:00:45;;;;;;;2.15;0.90;;;21.60;90.30;;;;;;4996533;28;20521;-82
2023/08/31 00:03:12;;;;;;;1.20;0.98;;;21.60;90.30;;;;;;5009965;28;20121;-83
2023/08/31 00:05:42;;;;;;;1.20;0.88;;;21.60;90.20;;;;;;4993349;28;20039;-83
2023/08/31 00:08:08;;;;;;;2.50;1.17;;;21.60;90.10;;;;;;4990639;28;20556;-83
2023/08/31 00:10:35;;;;;;;2.75;1.23;;;21.60;90.10;;;;;;5007589;28;20487;-84
2023/08/31 00:13:01;;;;;;;1.90;1.08;;;21.60;90.20;;;;;;4977657;28;20117;-84
2023/08/31 00:15:28;;;;;;;3.83;0.93;;;21.60;90.20;;;;;;4994329;28;20046;-83
2023/08/31 00:17:54;;;;;;;1.95;1.10;;;21.60;90.30;;;;;;4999725;28;20471;-84
2023/08/31 00:20:21;;;;;;;1.92;1.02;;;21.60;90.40;;;;;;5009563;28;20033;-84
2023/08/31 00:22:47;;;;;;;1.77;1.00;;;21.60;90.40;;;;;;4994501;28;20026;-83
2023/08/31 00:25:13;;;;;;;1.77;1.13;;;21.60;90.40;;;;;;4994634;28;20033;-83
2023/08/31 00:27:40;;;;;;;1.10;0.90;;;21.60;90.40;;;;;;4995549;28;20022;-84
2023/08/31 00:30:09;;;;;;;2.78;1.02;;;21.60;90.20;;;;;;4999906;28;20014;-84
2023/08/31 00:32:35;;;;;;;3.63;1.20;;;21.60;90.20;;;;;;4995176;28;20344;-83
2023/08/31 00:35:01;;;;;;;2.10;1.13;;;21.60;90.10;;;;;;4993920;28;20061;-83
2023/08/31 00:37:27;;;;;;;4.00;1.20;;;21.60;90.10;;;;;;5002780;28;20075;-83
2023/08/31 00:39:54;;;;;;;1.30;1.00;;;21.70;90.10;;;;;;5005757;28;20736;-83
2023/08/31 00:42:20;;;;;;;2.10;1.25;;;21.70;90.30;;;;;;4994450;28;20026;-83
2023/08/31 00:44:49;;;;;;;2.28;0.98;;;21.60;90.40;;;;;;4993005;28;20022;-83
2023/08/31 00:47:15;;;;;;;2.33;1.20;;;21.70;90.40;;;;;;4993687;28;20533;-82
2023/08/31 00:49:41;;;;;;;1.60;1.25;;;21.70;90.60;;;;;;4989320;28;20382;-88
2023/08/31 00:52:07;;;;;;;2.75;1.23;;;21.60;90.40;;;;;;4987883;28;20113;-83
2023/08/31 00:54:34;;;;;;;1.35;0.90;;;21.60;90.40;;;;;;4994457;28;20065;-82
2023/08/31 00:57:01;;;;;;;3.75;1.60;;;21.70;90.40;;;;;;4991066;28;20057;-83
2023/08/31 00:59:27;;;;;;;2.13;1.10;;;21.70;90.50;;;;;;5002212;28;20045;-83
2023/08/31 01:02:16;;;;;;;2.28;1.10;;;21.60;90.70;;;;;;4976719;28;20066;-82
2023/08/31 01:04:53;;;;;;;3.53;1.70;;;21.60;90.70;;;;;;4985107;28;20026;-82
2023/08/31 01:07:36;;;;;;;2.25;1.40;;;21.60;90.70;;;;;;4986830;28;20022;-81
2023/08/31 01:10:12;;;;;;;2.03;1.58;;;21.60;90.70;;;;;;4993766;28;20555;-81
2023/08/31 01:12:47;;;;;;;4.20;1.83;;;21.60;90.80;;;;;;4994636;28;20038;-81
2023/08/31 01:15:14;;;;;;;2.80;2.13;;;21.60;90.70;;;;;;4996073;28;20045;-83
2023/08/31 01:17:48;;;;;;;3.20;2.38;;;21.60;90.70;;;;;;4994285;28;20117;-82
2023/08/31 01:20:33;;;;;;;2.95;2.53;;;21.60;90.60;;;;;;4977077;28;20042;-85
2023/08/31 01:23:15;;;;;;;4.05;2.60;;;21.60;90.60;;;;;;5009464;28;20328;-85
2023/08/31 01:25:43;;;;;;;4.43;2.80;;;21.60;90.50;;;;;;5005547;28;20040;-84
2023/08/31 01:28:11;;;;;;;4.28;3.20;;;21.60;90.40;;;;;;4998838;28;20019;-83
2023/08/31 01:30:37;;;;;;;4.22;2.90;;;21.60;90.30;;;;;;4993879;28;20045;-85
2023/08/31 01:33:02;;;;;;;5.63;3.75;;;21.60;90.30;;;;;;4997866;28;20022;-83
2023/08/31 01:35:46;;;;;;;6.28;4.25;;;21.60;90.40;;;;;;4998716;28;20038;-83
2023/08/31 01:38:17;;;;;;;5.13;3.90;;;21.60;90.40;;;;;;4976604;28;20062;-81
2023/08/31 01:40:52;;;;;;;5.07;3.95;;;21.60;90.30;;;;;;4974842;28;20057;-80
2023/08/31 01:43:19;;;;;;;4.93;3.85;;;21.60;90.50;;;;;;4998777;28;20030;-81
2023/08/31 01:45:46;;;;;;;4.93;3.88;;;21.60;90.70;;;;;;5008827;28;20044;-80
2023/08/31 01:48:14;;;;;;;6.63;5.88;;;21.60;90.90;;;;;;5000498;28;20089;-81
2023/08/31 01:50:40;;;;;;;10.88;7.30;;;21.60;90.60;;;;;;4992354;28;20394;-81
2023/08/31 01:53:07;;;;;;;9.25;7.32;;;21.50;90.40;;;;;;4997463;28;20114;-81
2023/08/31 01:55:32;;;;;;;8.35;6.28;;;21.50;90.40;;;;;;4979262;28;20545;-80
2023/08/31 01:57:58;;;;;;;8.43;6.15;;;21.50;90.50;;;;;;4993530;28;20034;-80
2023/08/31 02:00:26;;;;;;;9.15;7.05;;;21.60;90.70;;;;;;4992359;28;20097;-82
2023/08/31 02:02:51;;;;;;;11.02;7.35;;;21.60;90.70;;;;;;5010284;28;20022;-81
2023/08/31 02:05:18;;;;;;;12.32;8.70;;;21.50;90.70;;;;;;5001930;28;20446;-81
2023/08/31 02:07:43;;;;;;;10.20;7.95;;;21.50;90.70;;;;;;4995436;28;20022;-81
2023/08/31 02:10:09;;;;;;;11.15;9.43;;;21.60;90.60;;;;;;4990940;28;20089;-81
2023/08/31 02:12:38;;;;;;;10.98;8.98;;;21.60;90.50;;;;;;4994611;28;20030;-81
2023/08/31 02:15:05;;;;;;;13.40;10.45;;;21.50;90.60;;;;;;4985230;28;20506;-81
2023/08/31 02:17:31;;;;;;;12.90;10.38;;;21.50;90.70;;;;;;4994351;28;20029;-81
2023/08/31 02:19:57;;;;;;;12.88;10.23;;;21.50;90.50;;;;;;4998884;28;20022;-82
2023/08/31 02:22:23;;;;;;;12.88;9.98;;;21.50;90.60;;;;;;4997577;28;20490;-80
2023/08/31 02:24:49;;;;;;;11.57;9.90;;;21.50;90.80;;;;;;4979037;28;20045;-80
2023/08/31 02:27:14;;;;;;;12.57;10.50;;;21.50;90.80;;;;;;4996241;28;20027;-81
2023/08/31 02:29:40;;;;;;;14.07;11.23;;;21.50;90.80;;;;;;5005048;28;20022;-80
2023/08/31 02:32:06;;;;;;;14.32;11.13;;;21.50;90.80;;;;;;5016168;28;20098;-80
2023/08/31 02:34:32;;;;;;;13.88;11.25;;;21.50;90.80;;;;;;5001397;28;20486;-82
2023/08/31 02:36:58;;;;;;;13.23;10.98;;;21.40;90.70;;;;;;4978239;28;20041;-81
2023/08/31 02:39:23;;;;;;;11.30;10.05;;;21.40;90.80;;;;;;4988103;28;20036;-80
2023/08/31 02:41:49;;;;;;;12.60;11.05;;;21.40;90.80;;;;;;4996556;28;20037;-80
2023/08/31 02:44:15;;;;;;;16.30;11.95;;;21.40;90.80;;;;;;4996112;28;20124;-79
2023/08/31 02:46:41;;;;;;;17.17;11.45;;;21.40;90.90;;;;;;4978576;28;20114;-80
2023/08/31 02:49:07;;;;;;;16.58;11.05;;;21.40;91.00;;;;;;4999145;28;20034;-80
2023/08/31 02:51:32;;;;;;;13.30;11.07;;;21.40;91.20;;;;;;4997784;28;20041;-80
2023/08/31 02:53:58;;;;;;;12.85;10.18;;;21.40;91.30;;;;;;4978510;28;20050;-80
2023/08/31 02:56:24;;;;;;;11.98;9.65;;;21.30;91.40;;;;;;4996093;28;20035;-80
2023/08/31 02:58:49;;;;;;;11.52;8.43;;;21.40;91.50;;;;;;4996422;28;20439;-80
2023/08/31 03:01:15;;;;;;;9.60;8.00;;;21.30;91.70;;;;;;5001474;28;20062;-79
2023/08/31 03:09:54;;;;;;;10.50;6.97;;;21.30;91.90;;;;;;5010284;28;20188;-79
2023/08/31 03:12:35;;;;;;;10.88;6.97;;;21.20;91.90;;;;;;5014997;28;20802;-82
2023/08/31 03:15:01;;;;;;;8.30;6.40;;;21.20;92.00;;;;;;5003406;28;20026;-78
2023/08/31 03:17:27;;;;;;;8.13;5.72;;;21.20;92.00;;;;;;5011790;28;20030;-78
2023/08/31 03:19:52;;;;;;;7.75;5.50;;;21.20;92.10;;;;;;5015971;28;20071;-78
2023/08/31 03:22:24;;;;;;;8.45;5.70;;;21.20;92.10;;;;;;5015295;28;20025;-79
2023/08/31 03:24:50;;;;;;;8.98;5.85;;;21.10;92.20;;;;;;4981739;28;20046;-78
2023/08/31 03:27:16;;;;;;;8.65;5.43;;;21.20;92.30;;;;;;4996592;28;20485;-78
2023/08/31 03:29:42;;;;;;;8.35;5.63;;;21.10;92.30;;;;;;5011612;28;20057;-77
2023/08/31 03:32:07;;;;;;;8.70;5.32;;;21.10;92.40;;;;;;5003972;28;20096;-77
2023/08/31 03:34:33;;;;;;;7.57;5.95;;;21.10;92.50;;;;;;5013289;28;20033;-76
2023/08/31 03:36:59;;;;;;;7.00;5.30;;;21.10;92.40;;;;;;4980721;28;20553;-76
2023/08/31 03:39:25;;;;;;;8.88;6.00;;;21.10;92.40;;;;;;5013402;28;20044;-75
2023/08/31 03:41:51;;;;;;;7.43;5.00;;;21.10;92.40;;;;;;5015422;28;20113;-76
2023/08/31 03:44:17;;;;;;;7.90;5.38;;;21.10;92.50;;;;;;5014067;28;20432;-76
2023/08/31 03:46:43;;;;;;;8.15;4.65;;;21.10;92.60;;;;;;5014882;28;20105;-75
2023/08/31 03:49:09;;;;;;;6.47;4.40;;;21.10;92.60;;;;;;5014057;28;20033;-76
2023/08/31 03:51:34;;;;;;;9.27;5.30;;;21.10;92.60;;;;;;5014747;28;20097;-76
2023/08/31 03:54:00;;;;;;;5.55;3.65;;;21.10;92.70;;;;;;5015042;28;20116;-76
2023/08/31 03:56:26;;;;;;;4.60;3.55;;;21.10;92.70;;;;;;5016530;28;20029;-76
2023/08/31 03:58:53;;;;;;;4.35;3.17;;;21.10;92.70;;;;;;5008743;28;20092;-75
2023/08/31 04:01:18;;;;;;;5.97;3.00;;;21.00;92.70;;;;;;4995559;28;20018;-75
2023/08/31 04:03:45;;;;;;;5.22;2.75;;;21.10;92.70;;;;;;5006698;28;20092;-76
2023/08/31 04:06:11;;;;;;;3.78;2.40;;;21.10;92.50;;;;;;4998539;28;20529;-80
2023/08/31 04:08:38;;;;;;;4.55;2.20;;;21.10;92.30;;;;;;5001134;28;20065;-80
2023/08/31 06:11:23;;;;;;;0.90;0.80;;;21.00;90.90;;;;;;4973497;28;20445;-78
2023/08/31 06:13:48;;;;;;;1.20;0.82;;;21.00;90.80;;;;;;4960548;28;20117;-79
2023/08/31 06:16:14;;;;;;;4.65;0.85;;;21.10;90.80;;;;;;4979520;28;20698;-78
2023/08/31 06:18:40;;;;;;;1.60;0.70;;;21.10;90.70;;;;;;4972632;28;20048;-79
2023/08/31 06:21:05;;;;;;;1.58;0.80;;;21.20;90.70;;;;;;4977639;28;20466;-85
2023/08/31 06:23:31;;;;;;;1.27;0.60;;;21.20;90.90;;;;;;4980024;28;20030;-86
2023/08/31 06:25:57;;;;;;;2.28;0.77;;;21.20;90.70;;;;;;4962631;28;20379;-86
2023/08/31 06:28:23;;;;;;;1.67;0.70;;;21.30;90.60;;;;;;4973250;28;20023;-84
2023/08/31 06:30:49;;;;;;;2.05;0.80;;;21.30;90.60;;;;;;4970829;28;20031;-84
2023/08/31 06:33:15;;;;;;;2.28;0.90;;;21.30;90.50;;;;;;4968572;28;20118;-85
2023/08/31 06:35:40;;;;;;;4.88;0.80;;;21.40;90.60;;;;;;4977003;28;20030;-85
2023/08/31 06:38:07;;;;;;;2.55;0.60;;;21.50;90.60;;;;;;4973168;28;20039;-84
2023/08/31 06:40:33;;;;;;;4.93;0.90;;;21.60;90.60;;;;;;4977225;28;20105;-85
2023/08/31 06:42:59;;;;;;;4.32;1.02;;;21.60;90.40;;;;;;4968096;28;20057;-85
2023/08/31 06:45:25;;;;;;;1.77;0.90;;;21.60;90.40;;;;;;4957282;28;20058;-77
2023/08/31 06:47:51;;;;;;;3.72;0.80;;;21.60;90.30;;;;;;4958597;28;20027;-85
2023/08/31 06:50:16;;;;;;;1.83;1.00;;;21.70;90.30;;;;;;4976885;28;20387;-84
2023/08/31 06:52:43;;;;;;;1.02;0.82;;;21.70;90.30;;;;;;4990818;28;20034;-84
2023/08/31 06:55:10;;;;;;;2.95;0.95;;;21.70;90.30;;;;;;4993035;28;20049;-84
2023/08/31 06:57:37;;;;;;;1.85;1.15;;;21.80;90.40;;;;;;4964809;28;20109;-83
2023/08/31 07:00:03;;;;;;;1.88;1.20;;;21.90;90.40;;;;;;4969907;28;20042;-84
2023/08/31 07:02:29;;;;;;;2.10;1.02;;;21.80;90.40;;;;;;4947898;28;20154;-84
2023/08/31 07:04:55;;;;;;;1.67;1.13;;;21.90;90.40;;;;;;4969124;28;20361;-85
2023/08/31 07:07:21;;;;;;;2.15;0.93;;;22.00;90.40;;;;;;4970036;28;20480;-84
2023/08/31 07:09:50;;;;;;;2.97;1.33;;;22.00;90.30;;;;;;4978517;28;20050;-84
2023/08/31 07:12:16;;;;;;;1.38;0.80;;;22.10;90.40;;;;;;4988807;28;20022;-84
2023/08/31 07:14:41;;;;;;;2.58;1.30;;;22.10;90.20;;;;;;4984504;28;20045;-84
2023/08/31 07:17:07;;;;;;;1.50;0.77;;;22.10;90.20;;;;;;4986579;28;20040;-85
2023/08/31 07:19:37;;;;;;;2.22;0.98;;;22.20;90.20;;;;;;4987138;28;20034;-85
2023/08/31 07:22:07;;;;;;;2.78;1.20;;;22.30;90.20;;;;;;4985146;28;20039;-84
2023/08/31 07:24:34;;;;;;;1.52;0.90;;;22.40;90.30;;;;;;4971385;28;20041;-84
2023/08/31 07:27:02;;;;;;;3.20;1.30;;;22.50;90.20;;;;;;4989534;28;20014;-84
2023/08/31 07:29:28;;;;;;;2.20;0.90;;;22.50;90.10;;;;;;4988801;28;20447;-84
2023/08/31 07:31:53;;;;;;;1.25;0.80;;;22.50;90.00;;;;;;4997384;28;20489;-85
2023/08/31 07:34:20;;;;;;;1.58;0.90;;;22.60;89.80;;;;;;4973168;28;20031;-85
2023/08/31 07:36:46;;;;;;;4.45;1.20;;;22.60;89.40;;;;;;4974189;28;20063;-77
2023/08/31 07:39:12;;;;;;;3.40;1.33;;;22.70;89.10;;;;;;4993984;28;20026;-77
2023/08/31 07:41:38;;;;;;;2.95;1.00;;;22.70;89.00;;;;;;4995729;28;20434;-77
2023/08/31 07:44:04;;;;;;;1.65;0.73;;;22.80;87.80;;;;;;4989258;28;20018;-77
2023/08/31 07:46:30;;;;;;;1.90;0.82;;;22.80;88.10;;;;;;4995033;28;20026;-77
2023/08/31 07:48:56;;;;;;;2.05;0.98;;;22.90;88.00;;;;;;4995651;28;20124;-77
2023/08/31 07:51:23;;;;;;;1.85;0.70;;;22.90;88.00;;;;;;4982730;28;20038;-77
2023/08/31 07:53:51;;;;;;;1.98;1.00;;;23.00;88.00;;;;;;4960249;28;20033;-77
2023/08/31 07:56:17;;;;;;;3.63;0.85;;;23.10;87.60;;;;;;4993536;28;20038;-77
2023/08/31 07:58:44;;;;;;;2.58;1.10;;;23.10;87.40;;;;;;4993151;28;20030;-77
2023/08/31 08:01:09;;;;;;;3.70;0.68;;;23.20;87.80;;;;;;4977601;28;20057;-77
2023/08/31 08:03:35;;;;;;;2.42;0.95;;;23.30;87.10;;;;;;4994262;28;20680;-77
2023/08/31 08:06:03;;;;;;;1.48;0.77;;;23.30;86.50;;;;;;4994342;28;20401;-77
2023/08/31 08:08:29;;;;;;;1.95;0.90;;;23.40;86.50;;;;;;4994771;28;20466;-77
2023/08/31 08:10:55;;;;;;;1.00;0.60;;;23.40;86.30;;;;;;4981699;28;20038;-78
2023/08/31 08:13:21;;;;;;;1.23;0.70;;;23.40;86.40;;;;;;4985772;28;20033;-80
2023/08/31 08:15:47;;;;;;;3.97;1.10;;;23.50;86.40;;;;;;4992132;28;20105;-80
2023/08/31 08:18:13;;;;;;;1.75;0.70;;;23.60;86.40;;;;;;4971139;28;20065;-79
2023/08/31 08:20:39;;;;;;;1.20;0.82;;;23.60;86.20;;;;;;4980340;28;20070;-77
2023/08/31 08:23:06;;;;;;;2.83;0.90;;;23.70;86.40;;;;;;4989405;28;20109;-78
2023/08/31 08:25:34;;;;;;;0.80;0.75;;;23.80;85.80;;;;;;4994239;28;20026;-78
2023/08/31 08:28:02;;;;;;;1.85;0.70;;;23.80;84.70;;;;;;4976083;28;20041;-78
2023/08/31 08:30:27;;;;;;;1.95;0.70;;;23.80;84.70;;;;;;4957753;28;20600;-80
2023/08/31 08:32:53;;;;;;;2.00;0.73;;;23.80;84.90;;;;;;4973268;28;20023;-79
2023/08/31 08:35:19;;;;;;;2.38;0.95;;;23.80;84.90;;;;;;4975980;28;20127;-79
2023/08/31 08:37:44;;;;;;;3.15;0.52;;;23.80;84.60;;;;;;4990032;28;20037;-79
2023/08/31 08:40:10;;;;;;;1.10;0.80;;;23.80;85.00;;;;;;4986039;28;20026;-80
2023/08/31 08:42:42;;;;;;;4.28;1.05;;;23.90;85.70;;;;;;4991379;28;20019;-80
2023/08/31 08:45:15;;;;;;;2.35;0.63;;;24.00;85.10;;;;;;4993330;28;20042;-80
2023/08/31 08:47:43;;;;;;;4.70;0.70;;;24.10;85.30;;;;;;4990396;28;20022;-80
2023/08/31 08:50:13;;;;;;;1.63;0.73;;;24.20;85.00;;;;;;4992557;28;20525;-78
2023/08/31 08:52:40;;;;;;;1.23;0.50;;;24.30;84.00;;;;;;4993080;28;20026;-80
2023/08/31 08:55:06;;;;;;;0.75;0.40;;;24.30;84.00;;;;;;4980146;28;20034;-80
2023/08/31 08:57:34;;;;;;;2.33;0.50;;;24.40;82.90;;;;;;4992529;28;20065;-80
2023/08/31 08:59:59;;;;;;;1.48;0.50;;;24.40;83.60;;;;;;5001922;28;20034;-80
2023/08/31 09:02:25;;;;;;;1.88;0.47;;;24.40;83.70;;;;;;4997790;28;20026;-80
2023/08/31 09:04:54;;;;;;;1.58;0.40;;;24.50;83.80;;;;;;4980405;28;20078;-80
2023/08/31 09:07:21;;;;;;;1.15;0.52;;;24.50;84.00;;;;;;4992806;28;20477;-80
2023/08/31 09:09:52;;;;;;;1.33;0.50;;;24.50;83.90;;;;;;4992856;28;20082;-80
2023/08/31 09:12:18;;;;;;;0.82;0.50;;;24.50;84.20;;;;;;4993308;28;20048;-80
2023/08/31 09:15:00;;;;;;;0.57;0.50;;;24.60;84.10;;;;;;4993380;28;20386;-80
2023/08/31 09:17:29;;;;;;;2.13;0.57;;;24.60;83.40;;;;;;4981703;28;20505;-80
2023/08/31 09:20:01;;;;;;;0.88;0.52;;;24.60;83.80;;;;;;4992276;28;20069;-80
2023/08/31 09:22:27;;;;;;;2.97;0.85;;;24.70;83.90;;;;;;4988758;28;20038;-80
2023/08/31 09:24:52;;;;;;;1.50;0.60;;;24.90;84.00;;;;;;4994604;28;20034;-80
2023/08/31 09:27:20;;;;;;;2.50;0.60;;;25.00;84.50;;;;;;4975458;28;20034;-79
2023/08/31 09:29:46;;;;;;;1.33;0.70;;;25.10;83.10;;;;;;4997863;28;20030;-81
2023/08/31 09:32:18;;;;;;;0.45;0.32;;;25.00;82.30;;;;;;4979172;28;20379;-80
2023/08/31 09:34:45;;;;;;;1.05;0.40;;;25.00;82.00;;;;;;4990928;28;20033;-80
2023/08/31 09:37:11;;;;;;;1.25;0.40;;;25.00;82.10;;;;;;4992791;28;20360;-80
2023/08/31 09:39:39;;;;;;;0.70;0.28;;;25.00;82.50;;;;;;4995979;28;20037;-80
2023/08/31 09:42:04;;;;;;;1.30;0.40;;;25.10;82.10;;;;;;4995301;28;20026;-80
2023/08/31 09:44:30;;;;;;;0.93;0.30;;;25.10;81.60;;;;;;4990885;28;20471;-81
2023/08/31 09:46:57;;;;;;;1.50;0.47;;;25.10;82.30;;;;;;4992783;28;20033;-80
2023/08/31 09:49:24;;;;;;;0.45;0.30;;;25.20;82.30;;;;;;4976027;28;20034;-80
2023/08/31 09:51:51;;;;;;;0.52;0.30;;;25.30;82.50;;;;;;4992630;28;20022;-81
2023/08/31 09:54:23;;;;;;;0.40;0.40;;;25.40;82.00;;;;;;5004520;28;20030;-81
2023/08/31 09:56:49;;;;;;;1.30;0.40;;;25.50;81.40;;;;;;4990809;28;20096;-81
2023/08/31 09:59:16;;;;;;;0.52;0.40;;;25.60;82.10;;;;;;4993083;28;20034;-81
2023/08/31 10:01:45;;;;;;;1.27;0.47;;;25.80;81.50;;;;;;4973137;28;20057;-81
2023/08/31 10:04:12;;;;;;;0.30;0.20;;;25.90;81.20;;;;;;4971364;28;20030;-80
2023/08/31 10:06:41;;;;;;;0.80;0.30;;;25.90;80.10;;;;;;4991810;28;20037;-82
2023/08/31 10:09:09;;;;;;;0.20;0.20;;;25.90;80.50;;;;;;4975071;28;20030;-79
2023/08/31 10:11:36;;;;;;;0.43;0.20;;;26.00;80.40;;;;;;4990998;28;20052;-81
2023/08/31 10:14:04;;;;;;;0.40;0.28;;;26.00;79.80;;;;;;4968284;28;20788;-83
2023/08/31 10:16:30;;;;;;;2.28;0.20;;;26.00;79.90;;;;;;4987305;28;20031;-79
2023/08/31 10:18:57;;;;;;;0.60;0.35;;;26.10;79.50;;;;;;4986017;28;20041;-83
2023/08/31 10:21:23;;;;;;;0.28;0.28;;;26.20;79.80;;;;;;4972630;28;20049;-79
2023/08/31 10:23:50;;;;;;;0.60;0.30;;;26.40;79.10;;;;;;4989861;28;20033;-81
2023/08/31 10:26:30;;;;;;;2.25;0.60;;;26.50;78.60;;;;;;4992456;28;20047;-80
2023/08/31 10:28:57;;;;;;;4.65;0.47;;;26.70;78.60;;;;;;4973920;28;20045;-81
2023/08/31 10:31:32;;;;;;;0.50;0.20;;;26.80;78.10;;;;;;4991973;28;20026;-81
2023/08/31 10:34:03;;;;;;;1.02;0.30;;;26.90;78.10;;;;;;4991943;28;20027;-81
2023/08/31 10:37:03;;;;;;;3.65;2.83;;;26.90;77.80;;;;;;5008161;28;20117;-80
2023/08/31 10:39:38;;;;;;;3.83;1.60;;;27.00;77.80;;;;;;4962215;28;20402;-78
2023/08/31 10:42:05;;;;;;;1.20;0.65;;;27.20;78.10;;;;;;4983529;28;20041;-78
2023/08/31 10:44:31;;;;;;;0.65;0.32;;;27.20;76.80;;;;;;4995907;28;20030;-81
2023/08/31 10:47:03;;;;;;;0.90;0.45;;;27.10;76.60;;;;;;4993225;28;20429;-82
2023/08/31 10:49:28;;;;;;;0.50;0.43;;;27.00;76.80;;;;;;4972434;28;20070;-81
2023/08/31 10:51:56;;;;;;;1.50;0.57;;;26.80;76.20;;;;;;4995818;28;20026;-82
2023/08/31 10:54:26;;;;;;;0.57;0.43;;;26.70;77.00;;;;;;4997380;28;20030;-82
2023/08/31 10:57:02;;;;;;;0.93;0.40;;;26.60;77.50;;;;;;4995254;28;20045;-81
2023/08/31 11:00:01;;;;;;;0.47;0.30;;;26.50;77.40;;;;;;4996235;28;20029;-82
2023/08/31 11:02:37;;;;;;;1.80;0.45;;;26.30;77.60;;;;;;4971048;28;20141;-82
2023/08/31 11:05:18;;;;;;;0.80;0.63;;;26.20;78.50;;;;;;4998743;28;20080;-82
2023/08/31 11:07:44;;;;;;;1.95;0.40;;;26.20;79.10;;;;;;4995795;28;20031;-81
2023/08/31 11:10:14;;;;;;;0.80;0.30;;;26.10;78.90;;;;;;4998881;28;20045;-81
2023/08/31 11:12:41;;;;;;;0.90;0.40;;;26.00;79.10;;;;;;4972390;28;20475;-80
2023/08/31 11:15:07;;;;;;;3.15;0.50;;;25.90;79.60;;;;;;4994886;28;20030;-83
2023/08/31 11:17:33;;;;;;;1.25;0.38;;;25.80;79.70;;;;;;4993281;28;20054;-82
2023/08/31 11:20:00;;;;;;;0.38;0.38;;;25.80;80.20;;;;;;4996495;28;20034;-84
2023/08/31 11:22:27;;;;;;;5.07;0.50;;;25.80;80.30;;;;;;4989981;28;20549;-77
2023/08/31 11:24:53;;;;;;;1.75;0.40;;;25.70;80.40;;;;;;4977509;28;21774;-79
2023/08/31 11:27:21;;;;;;;1.33;0.40;;;25.70;81.00;;;;;;4994784;28;20040;-86
2023/08/31 11:29:48;;;;;;;2.30;0.55;;;25.70;80.60;;;;;;4988182;28;20069;-85
2023/08/31 11:32:14;;;;;;;0.20;0.20;;;25.70;81.00;;;;;;4986899;28;20030;-84
2023/08/31 11:34:50;;;;;;;0.73;0.30;;;25.60;81.00;;;;;;4994051;28;20025;-86
2023/08/31 11:37:15;;;;;;;0.55;0.30;;;25.60;81.00;;;;;;4996084;28;20034;-85
2023/08/31 11:39:49;;;;;;;0.38;0.30;;;25.50;81.60;;;;;;4999328;28;20068;-85
2023/08/31 11:42:17;;;;;;;1.75;0.30;;;25.50;81.60;;;;;;4995411;28;20030;-84
2023/08/31 11:44:46;;;;;;;2.83;0.30;;;25.50;81.90;;;;;;4993397;28;20113;-86
2023/08/31 11:47:13;;;;;;;0.40;0.30;;;25.40;82.00;;;;;;4974646;28;20042;-85
2023/08/31 11:49:41;;;;;;;0.40;0.30;;;25.40;82.30;;;;;;4989037;28;20102;-85
2023/08/31 11:52:07;;;;;;;1.80;0.52;;;25.40;82.20;;;;;;4992868;28;20049;-85
2023/08/31 11:54:33;;;;;;;1.00;0.40;;;25.40;82.20;;;;;;4996680;28;20695;-85
2023/08/31 11:56:59;;;;;;;1.35;0.38;;;25.30;82.90;;;;;;5007141;28;20034;-84
2023/08/31 11:59:25;;;;;;;1.17;0.30;;;25.30;83.30;;;;;;4998908;28;20045;-84
2023/08/31 12:01:50;;;;;;;0.38;0.35;;;25.30;83.60;;;;;;4991665;28;20037;-84
2023/08/31 12:04:25;;;;;;;1.33;0.50;;;25.30;84.10;;;;;;4998677;28;20029;-84
2023/08/31 12:06:53;;;;;;;0.73;0.40;;;25.30;84.30;;;;;;4998673;28;20023;-85
2023/08/31 12:09:20;;;;;;;1.38;0.40;;;25.30;84.10;;;;;;4980849;28;20058;-85
2023/08/31 12:11:51;;;;;;;0.52;0.40;;;25.30;84.10;;;;;;5007451;28;20033;-84
2023/08/31 12:14:22;;;;;;;2.63;0.47;;;25.50;84.70;;;;;;4981779;28;20049;-84
2023/08/31 12:16:49;;;;;;;0.32;0.30;;;26.00;84.50;;;;;;5001358;28;20034;-84
2023/08/31 12:19:15;;;;;;;1.10;0.38;;;26.40;84.10;;;;;;4983888;28;20386;-84
2023/08/31 12:21:43;;;;;;;0.43;0.30;;;26.90;82.50;;;;;;4991684;28;20022;-84
2023/08/31 12:24:09;;;;;;;1.08;0.30;;;27.30;81.70;;;;;;4990704;28;20041;-84
2023/08/31 12:26:35;;;;;;;0.30;0.20;;;27.80;80.30;;;;;;4993703;28;20022;-86
2023/08/31 12:29:01;;;;;;;0.65;0.20;;;28.20;79.40;;;;;;4994045;28;20101;-82
2023/08/31 12:31:26;;;;;;;0.88;0.20;;;28.50;77.60;;;;;;4993064;28;20022;-83
2023/08/31 12:33:52;;;;;;;5.72;0.45;;;28.80;76.80;;;;;;4993661;28;20489;-84
2023/08/31 12:36:18;;;;;;;1.92;0.43;;;28.90;74.50;;;;;;4990545;28;20039;-79
2023/08/31 12:38:44;;;;;;;2.38;0.80;;;28.90;74.70;;;;;;4994370;28;20030;-78
2023/08/31 12:41:09;;;;;;;1.45;0.50;;;29.10;74.40;;;;;;4994221;28;20037;-78
2023/08/31 12:43:35;;;;;;;1.42;0.32;;;29.30;74.00;;;;;;5006190;28;20101;-78
2023/08/31 12:46:01;;;;;;;1.08;0.50;;;29.50;71.00;;;;;;4991423;28;20061;-79
2023/08/31 12:48:27;;;;;;;2.17;0.50;;;29.50;72.50;;;;;;4992361;28;20030;-78
2023/08/31 12:50:53;;;;;;;0.60;0.32;;;29.70;72.20;;;;;;4975544;28;20034;-78
2023/08/31 12:53:22;;;;;;;1.60;0.50;;;29.80;72.60;;;;;;4995637;28;20029;-79
2023/08/31 12:55:49;;;;;;;1.13;0.35;;;29.90;71.70;;;;;;4996564;28;20519;-78
2023/08/31 12:58:15;;;;;;;2.30;0.63;;;30.10;71.00;;;;;;4995511;28;20026;-78
2023/08/31 13:00:43;;;;;;;0.57;0.40;;;30.30;70.30;;;;;;4993384;28;20029;-78
2023/08/31 13:03:09;;;;;;;3.20;0.70;;;30.50;70.10;;;;;;5002998;28;20406;-79
2023/08/31 13:05:38;;;;;;;0.80;0.50;;;30.60;69.80;;;;;;4994212;28;20161;-79
2023/08/31 13:08:04;;;;;;;2.50;0.77;;;30.70;69.50;;;;;;4993373;28;20042;-79
2023/08/31 13:10:31;;;;;;;1.52;0.60;;;30.70;69.00;;;;;;4993084;28;20391;-79
2023/08/31 13:12:56;;;;;;;2.17;0.82;;;30.60;68.30;;;;;;4975534;28;20430;-79
2023/08/31 13:15:22;;;;;;;3.90;1.00;;;30.50;69.70;;;;;;5005585;28;20042;-79
2023/08/31 13:17:48;;;;;;;1.63;0.50;;;30.30;69.90;;;;;;4997916;28;20026;-78
2023/08/31 13:20:13;;;;;;;1.45;0.60;;;30.20;69.70;;;;;;4995885;28;20034;-78
2023/08/31 13:22:39;;;;;;;1.45;0.40;;;30.00;70.20;;;;;;4996906;28;20057;-78
2023/08/31 13:25:05;;;;;;;0.90;0.40;;;29.80;70.00;;;;;;4992981;28;20459;-80
2023/08/31 13:27:33;;;;;;;1.05;0.40;;;29.70;70.70;;;;;;4985519;28;20066;-80
2023/08/31 13:29:59;;;;;;;4.13;0.68;;;29.50;70.90;;;;;;4988991;28;20108;-85
2023/08/31 13:32:25;;;;;;;1.27;0.30;;;29.30;71.40;;;;;;4983243;28;20027;-85
2023/08/31 13:34:53;;;;;;;1.20;0.30;;;29.10;71.30;;;;;;4987206;28;20030;-85
2023/08/31 13:37:19;;;;;;;1.20;0.70;;;28.90;72.10;;;;;;4993025;28;20386;-84
2023/08/31 13:39:44;;;;;;;1.55;0.55;;;28.70;72.10;;;;;;4996862;28;20041;-84
2023/08/31 13:42:10;;;;;;;2.33;0.60;;;28.60;72.20;;;;;;4976530;28;20084;-84
2023/08/31 13:44:36;;;;;;;1.33;0.40;;;28.50;72.40;;;;;;4993374;28;20054;-80
2023/08/31 13:47:03;;;;;;;2.22;0.63;;;28.40;73.40;;;;;;4982954;28;20034;-86
2023/08/31 13:49:30;;;;;;;3.08;0.73;;;28.20;73.20;;;;;;4973002;28;20084;-85
2023/08/31 13:51:56;;;;;;;0.68;0.40;;;28.20;74.30;;;;;;4993781;28;20026;-85
2023/08/31 13:54:21;;;;;;;2.05;0.52;;;28.10;73.70;;;;;;4990041;28;20026;-84
2023/08/31 13:56:50;;;;;;;2.30;0.65;;;28.00;74.10;;;;;;4993950;28;20026;-85
2023/08/31 13:59:15;;;;;;;2.60;0.90;;;27.90;74.40;;;;;;4993470;28;20077;-83
2023/08/31 14:01:41;;;;;;;1.50;0.82;;;27.80;74.90;;;;;;4988199;28;20054;-83
2023/08/31 14:04:07;;;;;;;1.40;0.40;;;27.80;75.30;;;;;;4984197;28;20478;-83
2023/08/31 14:06:33;;;;;;;3.20;0.55;;;27.80;75.30;;;;;;4988383;28;20093;-83
2023/08/31 14:08:59;;;;;;;2.60;0.52;;;27.70;75.00;;;;;;4972038;28;20106;-82
2023/08/31 14:11:25;;;;;;;2.15;0.60;;;27.70;75.20;;;;;;4990533;28;20065;-82
2023/08/31 14:13:52;;;;;;;1.20;0.60;;;27.60;75.40;;;;;;4993274;28;20050;-81
2023/08/31 14:16:18;;;;;;;2.17;0.80;;;27.60;75.70;;;;;;4977800;28;20049;-81
2023/08/31 14:18:44;;;;;;;2.38;0.70;;;27.60;75.70;;;;;;4995646;28;20434;-81
2023/08/31 14:21:16;;;;;;;2.60;0.80;;;27.50;74.80;;;;;;4979096;28;20482;-81
2023/08/31 14:23:41;;;;;;;0.98;0.60;;;27.50;75.20;;;;;;4997691;28;20414;-81
2023/08/31 14:26:10;;;;;;;5.88;0.90;;;27.40;75.00;;;;;;4995397;28;20058;-82
2023/08/31 14:28:37;;;;;;;0.88;0.40;;;27.40;74.60;;;;;;4997630;28;20026;-79
2023/08/31 14:31:07;;;;;;;1.60;0.57;;;27.40;74.70;;;;;;4979312;28;20109;-79
2023/08/31 14:33:33;;;;;;;1.15;0.60;;;27.40;74.70;;;;;;4992893;28;20065;-79
2023/08/31 14:35:58;;;;;;;1.08;0.60;;;27.30;75.20;;;;;;4994236;28;20053;-78
2023/08/31 14:38:24;;;;;;;1.92;0.80;;;27.30;75.20;;;;;;4996209;28;20038;-81
2023/08/31 14:40:51;;;;;;;1.65;0.55;;;27.30;74.90;;;;;;4995014;28;20059;-79
2023/08/31 14:43:17;;;;;;;1.08;0.63;;;27.30;74.40;;;;;;4998775;28;20073;-80
2023/08/31 14:45:43;;;;;;;2.42;0.75;;;27.30;74.10;;;;;;4997862;28;20038;-81
2023/08/31 14:48:08;;;;;;;1.45;0.50;;;27.30;74.10;;;;;;4997406;28;20656;-82
2023/08/31 14:50:34;;;;;;;0.90;0.50;;;27.30;74.30;;;;;;4995486;28;20097;-80
2023/08/31 14:53:00;;;;;;;2.13;0.70;;;27.20;74.70;;;;;;4977129;28;20038;-78